Time;durP1;ratioP1;P1;durP2;ratioP2;P2;SDS_P1;SDS_P2;PMS_P1;PMS_P2;Temp;Humidity;BMP_temperature;BMP_pressure;BME280_temperature;BME280_humidity;BME280_pressure;Samples;Min_cycle;Max_cycle;Signal;HPM_P1;HPM_P2
2024/01/17 00:01:27;;;;;;;18.80;14.03;;;-5.10;99.90;;;-4.52;90.89;96669.91;10431134;28;20250;-66
2024/01/17 00:06:31;;;;;;;16.97;13.97;;;-5.10;99.90;;;-4.66;89.79;96662.75;10441958;28;20303;-65
2024/01/17 00:11:35;;;;;;;17.97;12.80;;;-5.10;99.90;;;-4.68;90.47;96655.09;10451808;28;20244;-65
2024/01/17 00:16:39;;;;;;;18.00;12.97;;;-5.20;99.90;;;-4.54;90.91;96647.31;10461871;28;20724;-65
2024/01/17 00:21:42;;;;;;;14.40;12.70;;;-5.10;99.90;;;-4.72;90.54;96640.59;10452124;28;20240;-65
2024/01/17 00:26:45;;;;;;;19.43;13.77;;;-5.20;99.90;;;-4.62;90.00;96630.75;10463175;28;20224;-64
2024/01/17 00:31:50;;;;;;;17.20;13.97;;;-5.20;99.90;;;-4.81;90.80;96629.75;10431678;28;20232;-65
2024/01/17 00:36:53;;;;;;;19.03;13.50;;;-5.20;99.90;;;-4.89;91.46;96626.56;10452301;28;20342;-64
2024/01/17 00:41:56;;;;;;;18.33;13.80;;;-5.20;99.90;;;-4.80;91.42;96624.03;10455438;28;20252;-64
2024/01/17 00:47:01;;;;;;;16.53;13.63;;;-5.20;99.90;;;-4.90;91.15;96616.44;10454545;28;20219;-65
2024/01/17 00:52:05;;;;;;;15.13;12.87;;;-5.30;99.90;;;-4.84;91.51;96612.03;10470529;28;20228;-64
2024/01/17 00:57:08;;;;;;;16.73;13.10;;;-5.30;99.90;;;-4.76;90.91;96601.16;10469439;28;21063;-64
2024/01/17 01:02:13;;;;;;;16.47;12.77;;;-5.20;99.90;;;-4.64;91.21;96587.34;10453709;28;20371;-66
2024/01/17 01:07:16;;;;;;;16.27;12.63;;;-5.10;99.90;;;-4.66;91.12;96592.97;10470093;28;20247;-65
2024/01/17 01:12:19;;;;;;;16.60;12.47;;;-5.10;99.90;;;-4.66;91.49;96573.88;10450516;28;20321;-66
2024/01/17 01:17:23;;;;;;;17.60;12.93;;;-5.00;99.90;;;-4.67;91.28;96567.13;10453939;28;20247;-65
2024/01/17 01:22:27;;;;;;;17.90;14.33;;;-5.00;99.90;;;-4.60;91.04;96579.44;10440971;28;20231;-64
2024/01/17 01:27:30;;;;;;;16.80;12.83;;;-5.00;99.90;;;-4.36;90.99;96570.84;10456328;28;20232;-64
2024/01/17 01:32:34;;;;;;;17.80;13.90;;;-4.90;99.90;;;-4.53;90.72;96581.75;10449764;28;20609;-64
2024/01/17 01:37:37;;;;;;;18.53;13.77;;;-5.00;99.90;;;-4.50;91.19;96580.28;10425825;28;20327;-65
2024/01/17 01:42:44;;;;;;;14.73;13.23;;;-4.90;99.90;;;-4.53;91.68;96590.84;10461925;28;20255;-66
2024/01/17 01:47:48;;;;;;;20.27;13.63;;;-4.90;99.90;;;-4.58;90.72;96573.00;10466709;28;20228;-64
2024/01/17 01:52:52;;;;;;;16.37;13.43;;;-4.90;99.90;;;-4.50;91.09;96557.84;10467889;28;20232;-64
2024/01/17 01:57:55;;;;;;;18.83;14.30;;;-4.90;99.90;;;-4.40;91.21;96543.03;10447250;28;21390;-65
2024/01/17 02:03:00;;;;;;;17.53;13.13;;;-4.80;99.90;;;-4.25;90.34;96536.06;10469504;28;20231;-65
2024/01/17 02:08:04;;;;;;;16.70;13.20;;;-4.70;99.90;;;-4.11;89.49;96513.25;10451863;28;20311;-65
2024/01/17 02:13:08;;;;;;;17.97;13.07;;;-4.60;99.90;;;-4.33;90.32;96505.41;10467121;28;20666;-65
2024/01/17 02:18:13;;;;;;;20.37;14.03;;;-4.70;99.90;;;-4.38;91.02;96491.66;10467434;28;20227;-65
2024/01/17 02:23:24;;;;;;;15.60;12.40;;;-4.70;99.90;;;-4.14;90.66;96478.03;10465727;28;20232;-65
2024/01/17 02:28:29;;;;;;;16.03;12.53;;;-4.60;99.90;;;-4.21;90.78;96466.63;10426239;28;20229;-65
2024/01/17 02:33:33;;;;;;;17.50;13.57;;;-4.60;99.90;;;-4.20;90.48;96460.91;10437293;28;20259;-66
2024/01/17 02:38:36;;;;;;;17.97;14.57;;;-4.50;99.90;;;-4.02;90.64;96454.19;10445205;28;20221;-66
2024/01/17 02:43:41;;;;;;;18.73;13.30;;;-4.40;99.90;;;-3.94;90.66;96458.25;10441491;28;20674;-65
2024/01/17 02:48:44;;;;;;;15.33;13.27;;;-4.30;99.90;;;-3.86;91.22;96444.81;10448076;28;20253;-66
2024/01/17 02:53:48;;;;;;;18.63;15.03;;;-4.20;99.90;;;-3.76;90.73;96439.00;10464506;28;20952;-65
2024/01/17 02:58:52;;;;;;;18.33;13.87;;;-4.10;99.90;;;-3.63;90.25;96436.84;10454468;28;20261;-65
2024/01/17 03:03:55;;;;;;;16.60;12.97;;;-4.10;99.90;;;-3.43;91.10;96430.22;10452943;28;20950;-65
2024/01/17 03:08:58;;;;;;;14.97;13.37;;;-3.90;99.90;;;-3.27;89.94;96422.41;10455295;28;20747;-65
2024/01/17 03:14:03;;;;;;;17.97;13.33;;;-3.80;99.90;;;-3.24;89.08;96428.53;10443098;28;20255;-66
2024/01/17 03:19:07;;;;;;;15.23;12.73;;;-3.70;99.90;;;-3.19;89.64;96414.81;10446391;28;20228;-66
2024/01/17 03:24:11;;;;;;;14.77;13.20;;;-3.70;99.90;;;-3.18;89.66;96409.09;10425893;28;20238;-65
2024/01/17 03:29:15;;;;;;;17.67;12.40;;;-3.70;99.90;;;-3.04;89.60;96386.88;10431130;28;20847;-64
2024/01/17 03:34:18;;;;;;;15.77;13.07;;;-3.60;99.90;;;-3.08;90.04;96375.75;10439218;28;20226;-67
2024/01/17 03:39:22;;;;;;;13.73;12.20;;;-3.60;99.90;;;-2.97;90.15;96372.56;10433640;28;20475;-65
2024/01/17 03:44:26;;;;;;;18.67;12.50;;;-3.50;99.90;;;-2.94;90.57;96364.44;10463886;28;20314;-66
2024/01/17 03:49:30;;;;;;;14.80;12.63;;;-3.50;99.90;;;-2.88;91.66;96367.44;10437921;28;20236;-64
2024/01/17 03:54:33;;;;;;;14.77;12.70;;;-3.50;99.90;;;-2.93;90.76;96368.69;10457700;28;20321;-65
2024/01/17 03:59:37;;;;;;;15.90;12.87;;;-3.50;99.90;;;-2.90;91.75;96356.44;10464958;28;20243;-66
2024/01/17 04:04:41;;;;;;;17.40;13.43;;;-3.50;99.90;;;-2.88;92.26;96354.06;10458011;28;20228;-66
2024/01/17 04:09:45;;;;;;;17.30;13.97;;;-3.50;99.90;;;-2.90;92.57;96351.44;10433411;28;20240;-65
2024/01/17 04:14:49;;;;;;;19.33;13.00;;;-3.40;99.90;;;-2.89;92.99;96345.72;10463463;28;20216;-65
2024/01/17 04:19:52;;;;;;;17.40;13.40;;;-3.40;99.90;;;-2.78;94.04;96332.44;10436811;28;20604;-64
2024/01/17 04:24:56;;;;;;;14.60;12.40;;;-3.30;99.90;;;-2.90;94.12;96303.06;10469308;28;20231;-64
2024/01/17 04:30:00;;;;;;;15.27;13.37;;;-3.30;99.90;;;-2.72;93.92;96289.56;10456378;28;20225;-64
2024/01/17 04:35:04;;;;;;;14.87;12.37;;;-3.20;99.90;;;-2.51;93.07;96277.94;10463665;28;20938;-66
2024/01/17 04:40:10;;;;;;;21.00;14.43;;;-3.10;99.90;;;-2.49;94.23;96266.41;10459602;28;20224;-66
2024/01/17 04:45:14;;;;;;;16.93;12.50;;;-3.00;99.90;;;-2.16;93.18;96240.72;10452356;28;20611;-65
2024/01/17 04:50:17;;;;;;;14.07;11.27;;;-2.80;99.90;;;-2.46;94.62;96241.69;10448503;28;20228;-65
2024/01/17 04:55:21;;;;;;;16.77;13.37;;;-3.00;99.90;;;-2.27;93.91;96229.84;10461989;28;20233;-64
2024/01/17 05:00:25;;;;;;;16.40;13.37;;;-2.80;99.90;;;-2.39;96.31;96228.91;10448047;28;20228;-64
2024/01/17 05:05:29;;;;;;;16.90;13.57;;;-2.90;99.90;;;-2.46;96.25;96216.69;10470257;28;20315;-64
2024/01/17 05:10:32;;;;;;;16.97;13.17;;;-3.00;99.90;;;-2.35;96.89;96213.38;10471340;28;20232;-66
2024/01/17 05:15:37;;;;;;;15.87;13.40;;;-2.90;99.90;;;-2.41;96.61;96195.38;10453426;28;20236;-64
2024/01/17 05:20:41;;;;;;;15.23;13.63;;;-2.90;99.90;;;-2.17;96.11;96183.06;10430694;28;20285;-65
2024/01/17 05:25:44;;;;;;;16.20;13.87;;;-2.80;99.90;;;-2.20;95.41;96165.28;10452516;28;20238;-66
2024/01/17 05:30:49;;;;;;;18.10;14.27;;;-2.80;99.90;;;-2.21;96.46;96151.91;10446846;28;20626;-65
2024/01/17 05:35:52;;;;;;;17.13;13.83;;;-2.80;99.90;;;-2.12;96.29;96135.13;10468341;28;20330;-66
2024/01/17 05:40:56;;;;;;;18.50;14.33;;;-2.80;99.90;;;-2.23;96.89;96120.00;10437923;28;20229;-65
2024/01/17 05:46:02;;;;;;;19.90;14.70;;;-2.80;99.90;;;-2.27;98.85;96099.75;10446201;28;20225;-65
2024/01/17 05:51:06;;;;;;;20.30;15.83;;;-2.70;99.90;;;-2.15;99.18;96093.94;10425996;28;20222;-64
2024/01/17 05:56:09;;;;;;;20.23;14.70;;;-2.70;99.90;;;-2.02;98.33;96079.13;10427273;28;20298;-64
2024/01/17 06:01:14;;;;;;;21.37;16.67;;;-2.60;99.90;;;-2.00;99.23;96071.72;10458512;28;20270;-65
2024/01/17 06:06:17;;;;;;;21.60;17.03;;;-2.50;99.90;;;-1.72;100.00;96049.59;10444139;28;20232;-65
2024/01/17 06:11:21;;;;;;;20.33;18.13;;;-2.20;99.90;;;-1.60;100.00;96043.88;10452905;28;20260;-65
2024/01/17 06:16:25;;;;;;;18.47;15.70;;;-2.10;99.90;;;-1.53;100.00;96031.81;10441432;28;20227;-66
2024/01/17 06:21:28;;;;;;;19.30;16.17;;;-2.00;99.90;;;-1.57;100.00;96028.22;10439001;28;20454;-65
2024/01/17 06:26:33;;;;;;;20.80;15.97;;;-2.00;99.90;;;-1.38;100.00;96015.38;10422169;28;20317;-65
2024/01/17 06:31:38;;;;;;;22.83;16.37;;;-1.90;99.90;;;-1.28;100.00;96006.91;10447351;28;20236;-65
2024/01/17 06:36:42;;;;;;;24.33;17.87;;;-1.70;99.90;;;-1.10;100.00;95990.66;10465554;28;20224;-65
2024/01/17 06:41:46;;;;;;;23.67;18.37;;;-1.60;99.90;;;-1.11;100.00;95986.41;10451332;28;20230;-65
2024/01/17 06:46:50;;;;;;;25.33;18.07;;;-1.50;99.90;;;-1.08;100.00;95971.59;10457936;28;20243;-64
2024/01/17 06:51:54;;;;;;;21.43;17.97;;;-1.50;99.90;;;-1.04;100.00;95958.47;10444067;28;20233;-64
2024/01/17 06:56:57;;;;;;;20.50;16.30;;;-1.50;99.90;;;-0.85;100.00;95957.28;10453151;28;21663;-65
2024/01/17 07:02:01;;;;;;;25.17;17.97;;;-1.40;99.90;;;-0.78;100.00;95942.72;10457148;28;20225;-65
2024/01/17 07:07:05;;;;;;;21.87;16.67;;;-1.30;99.90;;;-0.71;100.00;95941.53;10444264;28;20227;-64
2024/01/17 07:12:08;;;;;;;18.50;16.40;;;-1.20;99.90;;;-0.57;100.00;95929.91;10432897;28;20225;-65
2024/01/17 07:17:12;;;;;;;21.87;16.47;;;-1.10;99.90;;;-0.52;100.00;95931.97;10422288;28;20232;-64
2024/01/17 07:22:16;;;;;;;24.97;20.17;;;-1.00;99.90;;;-0.44;100.00;95921.59;10440112;28;20443;-64
2024/01/17 07:27:19;;;;;;;23.20;18.50;;;-1.00;99.90;;;-0.35;100.00;95920.53;10461234;28;20695;-64
2024/01/17 07:32:23;;;;;;;21.80;17.27;;;-0.90;99.90;;;-0.32;100.00;95903.19;10448109;28;20229;-64
2024/01/17 07:37:26;;;;;;;22.07;17.30;;;-0.90;99.90;;;-0.26;100.00;95895.19;10433834;28;20238;-64
2024/01/17 07:42:30;;;;;;;18.30;15.50;;;-0.80;99.90;;;-0.13;100.00;95886.84;10439562;28;20234;-64
2024/01/17 07:47:34;;;;;;;21.50;16.70;;;-0.70;99.90;;;0.08;100.00;95884.84;10465127;28;20630;-65
2024/01/17 07:52:38;;;;;;;25.93;20.63;;;-0.50;99.90;;;0.07;100.00;95875.56;10441555;28;20245;-65
2024/01/17 07:57:41;;;;;;;22.93;17.23;;;-0.50;99.90;;;0.11;100.00;95863.28;10453700;28;20284;-64
2024/01/17 08:02:45;;;;;;;28.83;20.50;;;-0.40;99.90;;;0.24;100.00;95869.97;10463790;28;20230;-64
2024/01/17 08:07:48;;;;;;;25.30;18.67;;;-0.30;99.90;;;0.22;100.00;95861.47;10465991;28;20625;-63
2024/01/17 08:12:52;;;;;;;27.80;18.90;;;-0.30;99.90;;;0.27;100.00;95854.25;10468378;28;20608;-65
2024/01/17 08:17:56;;;;;;;30.03;20.93;;;-0.20;99.90;;;0.39;100.00;95855.88;10448027;28;20242;-65
2024/01/17 08:22:59;;;;;;;25.30;19.70;;;-0.10;99.90;;;0.35;100.00;95856.47;10460783;28;20224;-65
2024/01/17 08:28:03;;;;;;;31.47;22.50;;;0.00;99.90;;;0.42;100.00;95846.00;10431295;28;21085;-67
2024/01/17 08:33:07;;;;;;;22.37;19.43;;;0.10;99.90;;;0.53;100.00;95839.16;10444227;28;20243;-65
2024/01/17 08:38:11;;;;;;;29.93;19.20;;;0.20;99.90;;;0.45;100.00;95826.09;10445253;28;20231;-64
2024/01/17 08:43:14;;;;;;;32.33;21.83;;;0.20;99.90;;;0.52;100.00;95813.94;10461795;28;20245;-65
2024/01/17 08:48:19;;;;;;;33.70;22.47;;;0.20;99.90;;;0.61;100.00;95809.47;10429908;28;20220;-66
2024/01/17 08:53:22;;;;;;;29.83;19.03;;;0.30;99.90;;;0.53;100.00;95805.59;10451551;28;20331;-65
2024/01/17 08:58:25;;;;;;;26.20;18.80;;;0.30;99.90;;;0.66;100.00;95798.91;10447053;28;20242;-63
2024/01/17 09:03:32;;;;;;;23.93;16.97;;;0.40;99.90;;;0.86;100.00;95795.09;10467097;28;20805;-64
2024/01/17 09:08:35;;;;;;;25.27;18.50;;;0.50;99.90;;;0.72;100.00;95780.81;10463345;28;20655;-63
2024/01/17 09:13:38;;;;;;;23.20;19.03;;;0.40;99.90;;;0.68;100.00;95774.72;10449141;28;20363;-64
2024/01/17 09:18:43;;;;;;;25.63;18.43;;;0.40;99.90;;;0.73;100.00;95772.50;10450475;28;20224;-65
2024/01/17 09:23:46;;;;;;;35.43;21.67;;;0.40;99.90;;;0.76;100.00;95752.56;10471343;28;20247;-64
2024/01/17 09:28:49;;;;;;;52.40;28.47;;;0.50;99.90;;;0.87;100.00;95754.06;10451398;28;21733;-65
2024/01/17 09:33:54;;;;;;;32.47;23.00;;;0.50;99.90;;;0.82;100.00;95737.84;10452055;28;20263;-64
2024/01/17 09:38:57;;;;;;;24.10;18.47;;;0.50;99.90;;;0.89;100.00;95734.06;10462638;28;20283;-65
2024/01/17 09:44:01;;;;;;;17.77;13.80;;;0.50;99.90;;;0.90;100.00;95724.09;10449793;28;20231;-65
2024/01/17 09:49:07;;;;;;;14.87;12.40;;;0.60;99.90;;;0.94;100.00;95711.69;10468324;28;20358;-64
2024/01/17 09:54:11;;;;;;;16.80;13.67;;;0.60;99.90;;;0.99;100.00;95707.81;10446927;28;20740;-64
2024/01/17 09:59:27;;;;;;;27.60;17.83;;;0.70;99.90;;;1.11;100.00;95704.34;10456598;28;20241;-65
2024/01/17 10:04:34;;;;;;;20.33;14.40;;;0.80;99.90;;;1.17;100.00;95676.16;10440528;28;20237;-65
2024/01/17 10:09:38;;;;;;;22.60;16.33;;;0.90;99.90;;;1.28;100.00;95675.09;10439988;28;20751;-65
2024/01/17 10:14:41;;;;;;;15.00;12.73;;;0.90;99.90;;;1.33;100.00;95657.78;10438823;28;20229;-64
2024/01/17 10:19:47;;;;;;;19.73;13.40;;;1.00;99.90;;;1.38;100.00;95642.94;10446644;28;20309;-65
2024/01/17 10:24:53;;;;;;;22.07;16.27;;;1.00;99.90;;;1.60;100.00;95625.69;10464008;28;20223;-65
2024/01/17 10:29:56;;;;;;;21.40;15.97;;;1.10;99.90;;;1.48;100.00;95617.47;10458879;28;20301;-65
2024/01/17 10:35:05;;;;;;;23.33;17.67;;;1.00;99.90;;;1.46;100.00;95587.22;10456339;28;20217;-65
2024/01/17 10:40:11;;;;;;;21.20;16.53;;;1.00;99.90;;;1.54;100.00;95570.00;10456377;28;20591;-66
2024/01/17 10:45:23;;;;;;;16.83;12.87;;;1.10;99.90;;;1.66;100.00;95560.59;10444748;28;20710;-66
2024/01/17 10:50:30;;;;;;;16.43;13.17;;;1.20;99.90;;;1.63;100.00;95541.91;10465191;28;21235;-65
2024/01/17 10:55:38;;;;;;;10.17;9.00;;;1.20;99.90;;;2.00;100.00;95522.03;10456820;28;20225;-65
2024/01/17 11:00:45;;;;;;;11.40;8.53;;;1.70;99.90;;;2.55;100.00;95506.31;10472209;28;20231;-66
2024/01/17 11:05:51;;;;;;;18.07;13.47;;;2.40;99.90;;;2.88;100.00;95497.00;10471939;28;20252;-66
2024/01/17 11:10:55;;;;;;;24.13;20.87;;;2.70;99.90;;;3.04;100.00;95494.41;10456531;28;20228;-65
2024/01/17 11:16:01;;;;;;;15.47;13.83;;;2.80;99.90;;;3.13;100.00;95484.75;10451975;28;20224;-65
2024/01/17 11:21:06;;;;;;;13.93;11.27;;;2.90;99.90;;;3.25;100.00;95458.34;10471082;28;20592;-65
2024/01/17 11:26:18;;;;;;;11.90;9.30;;;3.00;99.90;;;3.43;100.00;95438.97;10451717;28;20815;-65
2024/01/17 11:31:36;;;;;;;10.10;8.40;;;3.20;99.90;;;3.56;100.00;95431.16;10466617;28;20228;-65
2024/01/17 11:36:45;;;;;;;9.77;8.03;;;3.30;99.90;;;3.61;100.00;95424.66;10448931;28;20568;-65
2024/01/17 11:41:51;;;;;;;8.53;7.63;;;3.30;99.90;;;3.71;100.00;95418.31;10446260;28;20250;-65
2024/01/17 11:46:54;;;;;;;9.97;8.93;;;3.30;99.90;;;3.72;100.00;95406.56;10442971;28;20331;-65
2024/01/17 11:51:59;;;;;;;22.63;17.20;;;3.20;99.90;;;3.48;100.00;95401.31;10453858;28;20981;-64
2024/01/17 11:57:06;;;;;;;21.43;16.00;;;2.70;99.90;;;3.42;100.00;95401.91;10429656;28;20286;-64
2024/01/17 12:02:36;;;;;;;27.27;21.50;;;2.70;99.90;;;3.21;100.00;95385.81;10461905;28;20629;-64
2024/01/17 12:07:43;;;;;;;17.43;13.67;;;2.60;99.90;;;3.22;100.00;95348.03;10450104;28;20374;-65
2024/01/17 12:12:47;;;;;;;11.70;10.50;;;2.60;99.90;;;3.42;100.00;95343.84;10460565;28;20239;-65
2024/01/17 12:17:50;;;;;;;14.30;10.33;;;2.80;99.90;;;3.48;100.00;95318.84;10446021;28;20223;-65
2024/01/17 12:22:55;;;;;;;12.63;10.20;;;3.00;99.90;;;3.45;100.00;95312.81;10461343;28;20795;-65
2024/01/17 12:27:58;;;;;;;6.07;5.47;;;3.00;99.90;;;3.65;100.00;95299.34;10452218;28;20225;-65
2024/01/17 12:33:02;;;;;;;8.50;7.70;;;3.20;99.90;;;3.87;100.00;95295.19;10440610;28;20229;-65
2024/01/17 12:38:08;;;;;;;19.97;13.93;;;3.30;99.90;;;3.63;100.00;95269.78;10438059;28;20276;-65
2024/01/17 12:43:11;;;;;;;13.80;11.03;;;3.00;99.90;;;3.75;100.00;95270.28;10450935;28;20776;-66
2024/01/17 12:48:15;;;;;;;13.10;11.43;;;3.10;99.90;;;3.61;100.00;95269.75;10439028;28;20240;-65
2024/01/17 12:53:20;;;;;;;19.27;15.60;;;3.00;99.90;;;3.46;100.00;95257.31;10442100;28;20228;-65
2024/01/17 12:58:23;;;;;;;15.93;14.13;;;2.80;99.90;;;3.36;100.00;95252.69;10419329;28;20222;-66
2024/01/17 13:03:27;;;;;;;20.27;14.53;;;2.70;99.90;;;3.28;100.00;95249.84;10454999;28;20755;-64
2024/01/17 13:08:31;;;;;;;18.23;15.37;;;2.60;99.90;;;3.29;100.00;95238.97;10452754;28;20224;-65
2024/01/17 13:13:34;;;;;;;21.80;16.67;;;2.60;99.90;;;3.24;100.00;95232.00;10446054;28;20232;-65
2024/01/17 13:18:37;;;;;;;20.60;17.23;;;2.60;99.90;;;3.26;100.00;95222.81;10428406;28;20780;-65
2024/01/17 13:23:42;;;;;;;21.00;17.37;;;2.60;99.90;;;3.39;100.00;95199.81;10442697;28;20380;-64
2024/01/17 13:28:45;;;;;;;20.40;16.40;;;2.70;99.90;;;3.31;100.00;95196.09;10446413;28;20361;-65
2024/01/17 13:33:49;;;;;;;22.60;16.73;;;2.70;99.90;;;3.37;100.00;95181.22;10453282;28;20243;-65
2024/01/17 13:38:54;;;;;;;17.87;14.50;;;2.80;99.90;;;3.56;100.00;95188.72;10448960;28;20267;-65
2024/01/17 13:43:57;;;;;;;17.30;14.97;;;2.90;99.90;;;3.51;100.00;95179.25;10467035;28;20315;-64
2024/01/17 13:49:00;;;;;;;23.57;17.87;;;3.00;99.90;;;3.56;100.00;95173.56;10446631;28;20320;-65
2024/01/17 13:54:14;;;;;;;32.97;26.30;;;3.00;99.90;;;3.59;100.00;95157.69;10466361;28;20363;-65
2024/01/17 13:59:18;;;;;;;32.33;26.47;;;3.00;99.90;;;3.65;100.00;95159.59;10436613;28;20259;-64
2024/01/17 14:04:22;;;;;;;34.90;27.33;;;3.00;99.90;;;3.75;100.00;95149.03;10452231;28;20597;-65
2024/01/17 14:09:29;;;;;;;33.93;27.80;;;3.10;99.90;;;3.88;100.00;95145.34;10452773;28;20236;-65
2024/01/17 14:14:33;;;;;;;40.37;33.37;;;3.20;99.90;;;3.85;100.00;95151.13;10437443;28;20281;-65
2024/01/17 14:19:36;;;;;;;39.63;31.33;;;3.20;99.90;;;3.79;100.00;95156.81;10458396;28;20260;-65
2024/01/17 14:24:41;;;;;;;32.27;26.43;;;3.20;99.90;;;3.83;100.00;95147.66;10446188;28;20695;-65
2024/01/17 14:29:44;;;;;;;32.60;28.43;;;3.20;99.90;;;4.01;100.00;95143.34;10458329;28;20243;-65
2024/01/17 14:34:47;;;;;;;36.73;30.47;;;3.40;99.90;;;4.02;100.00;95141.66;10425098;28;20231;-66
2024/01/17 14:39:52;;;;;;;29.70;25.27;;;3.40;99.90;;;4.02;100.00;95140.00;10457398;28;20216;-65
2024/01/17 14:44:56;;;;;;;25.43;22.67;;;3.40;99.90;;;4.14;100.00;95134.53;10449342;28;20224;-66
2024/01/17 14:49:59;;;;;;;40.57;32.40;;;3.60;99.90;;;4.17;100.00;95114.41;10441946;28;20287;-65
2024/01/17 14:55:06;;;;;;;32.80;28.17;;;3.60;99.90;;;4.15;100.00;95105.94;10458224;28;20223;-65
2024/01/17 15:00:18;;;;;;;26.30;23.30;;;3.60;99.90;;;4.24;100.00;95100.34;10439877;28;20677;-66
2024/01/17 15:05:24;;;;;;;22.83;20.43;;;3.50;99.90;;;4.12;100.00;95080.56;10441983;28;20242;-65
2024/01/17 15:10:29;;;;;;;19.73;17.60;;;3.50;99.90;;;4.12;100.00;95070.44;10457109;28;20258;-65
2024/01/17 15:15:32;;;;;;;16.77;15.17;;;3.40;99.90;;;3.93;100.00;95047.84;10448250;28;20939;-65
2024/01/17 15:20:35;;;;;;;22.03;18.97;;;3.30;99.90;;;4.18;100.00;95077.41;10451427;28;20760;-66
2024/01/17 15:25:40;;;;;;;27.30;22.40;;;3.60;99.90;;;3.91;100.00;95100.81;10432462;28;20231;-66
2024/01/17 15:30:44;;;;;;;30.07;26.77;;;3.20;99.90;;;3.91;100.00;95097.44;10457840;28;20225;-66
2024/01/17 15:35:48;;;;;;;33.77;27.03;;;3.10;99.90;;;3.69;100.00;95091.59;10411099;28;20224;-66
2024/01/17 15:40:58;;;;;;;25.40;21.97;;;3.10;99.90;;;3.71;100.00;95061.34;10424696;28;20341;-66
2024/01/17 15:46:01;;;;;;;24.80;22.17;;;3.10;99.90;;;3.66;100.00;95057.75;10432849;28;20227;-66
2024/01/17 15:51:06;;;;;;;22.47;19.73;;;3.00;99.90;;;3.67;100.00;95085.63;10442321;28;20731;-66
2024/01/17 15:56:12;;;;;;;28.47;25.53;;;3.00;99.90;;;3.77;100.00;95107.03;10439888;28;20643;-66
2024/01/17 16:01:15;;;;;;;36.10;27.27;;;3.00;99.90;;;3.67;100.00;95102.44;10421414;28;20227;-67
2024/01/17 16:06:18;;;;;;;25.33;22.57;;;2.90;99.90;;;3.55;100.00;95092.72;10419891;28;20379;-66
2024/01/17 16:11:23;;;;;;;22.13;20.03;;;2.90;99.90;;;3.58;100.00;95091.19;10452450;28;20704;-63
2024/01/17 16:16:26;;;;;;;71.10;34.13;;;2.90;99.90;;;3.69;100.00;95080.59;10452360;28;20720;-64
2024/01/17 16:21:30;;;;;;;30.20;23.83;;;3.00;99.90;;;3.71;100.00;95051.22;10468401;28;20577;-64
2024/01/17 16:26:35;;;;;;;20.03;17.73;;;3.00;99.90;;;3.75;100.00;95078.31;10446391;28;20267;-65
2024/01/17 16:31:45;;;;;;;32.33;28.30;;;3.10;99.90;;;4.36;100.00;95100.78;10459573;28;20228;-66
2024/01/17 16:36:48;;;;;;;41.53;32.70;;;3.80;99.90;;;4.07;100.00;95089.63;10450406;28;20225;-65
2024/01/17 16:41:52;;;;;;;47.73;35.37;;;3.30;99.90;;;3.70;100.00;95097.50;10470544;28;20235;-65
2024/01/17 16:46:55;;;;;;;32.60;27.83;;;3.10;99.90;;;3.66;100.00;95093.13;10426069;28;20223;-65
2024/01/17 16:51:58;;;;;;;43.73;36.00;;;3.10;99.90;;;3.67;100.00;95094.88;10462016;28;20266;-64
2024/01/17 16:57:03;;;;;;;35.63;31.70;;;3.20;99.90;;;3.84;100.00;95088.78;10459652;28;21927;-66
2024/01/17 17:02:06;;;;;;;31.37;27.73;;;3.40;99.90;;;4.20;100.00;95078.28;10469438;28;20452;-66
2024/01/17 17:07:10;;;;;;;28.03;24.60;;;3.70;99.90;;;4.05;100.00;95074.41;10459000;28;20237;-65
2024/01/17 17:12:14;;;;;;;30.57;26.67;;;3.50;99.90;;;4.27;100.00;95044.84;10473034;28;20234;-67
2024/01/17 17:17:17;;;;;;;21.03;18.70;;;3.60;99.90;;;3.80;100.00;95026.31;10467767;28;20225;-65
2024/01/17 17:22:20;;;;;;;19.20;17.20;;;3.20;99.90;;;3.84;100.00;95029.00;10465860;28;20327;-66
2024/01/17 17:27:37;;;;;;;18.27;14.90;;;3.40;99.90;;;4.38;100.00;95035.97;10456304;28;20233;-66
2024/01/17 17:32:40;;;;;;;12.93;11.27;;;4.10;99.90;;;4.86;100.00;95035.03;10445492;28;22477;-65
2024/01/17 17:37:43;;;;;;;13.13;11.83;;;4.60;99.90;;;5.15;100.00;95030.88;10472479;28;20692;-65
2024/01/17 17:42:48;;;;;;;13.63;11.23;;;4.80;99.90;;;5.42;100.00;95038.50;10465901;28;20225;-64
2024/01/17 17:47:51;;;;;;;14.90;12.97;;;5.00;99.90;;;5.65;100.00;95039.19;10457003;28;20720;-65
2024/01/17 17:52:55;;;;;;;12.40;11.20;;;5.30;99.90;;;5.78;100.00;95059.03;10479428;28;20289;-66
2024/01/17 17:57:59;;;;;;;13.83;12.37;;;5.40;99.90;;;6.03;100.00;95045.41;10465879;28;20760;-63
2024/01/17 18:03:04;;;;;;;30.20;22.60;;;5.60;99.90;;;6.42;100.00;95056.63;10448189;28;20250;-65
2024/01/17 18:08:10;;;;;;;38.33;30.77;;;5.70;99.90;;;6.08;100.00;95060.75;10451246;28;20224;-65
2024/01/17 18:13:14;;;;;;;22.10;19.23;;;5.30;99.90;;;5.84;100.00;95056.69;10505287;28;20323;-65
2024/01/17 18:18:17;;;;;;;32.23;21.93;;;5.20;99.90;;;5.82;100.00;95058.28;10458770;28;20318;-66
2024/01/17 18:23:21;;;;;;;26.13;22.60;;;5.20;99.90;;;5.97;100.00;95060.44;10455913;28;20611;-66
2024/01/17 18:28:26;;;;;;;19.20;17.33;;;5.40;99.90;;;5.97;100.00;95036.78;10449009;28;20228;-65
2024/01/17 18:33:29;;;;;;;30.50;27.07;;;5.30;99.90;;;5.70;100.00;95044.41;10457424;28;20236;-65
2024/01/17 18:38:33;;;;;;;27.57;24.00;;;4.80;99.90;;;5.40;100.00;95048.56;10449756;28;21086;-65
2024/01/17 18:43:39;;;;;;;23.67;21.17;;;4.60;99.90;;;5.28;100.00;95045.66;10451235;28;20225;-64
2024/01/17 18:48:43;;;;;;;21.57;18.10;;;4.40;99.90;;;5.13;100.00;95041.00;10467474;28;20224;-64
2024/01/17 18:53:48;;;;;;;24.57;21.23;;;4.40;99.90;;;5.06;100.00;95048.31;10455489;28;20687;-63
2024/01/17 18:58:52;;;;;;;19.83;17.47;;;4.30;99.90;;;5.14;100.00;95032.56;10443422;28;20761;-64
2024/01/17 19:03:59;;;;;;;17.87;16.17;;;4.60;99.90;;;5.42;100.00;95031.75;10443830;28;20231;-64
2024/01/17 19:09:05;;;;;;;26.23;21.73;;;4.90;99.90;;;5.66;100.00;95035.84;10452794;28;20225;-64
2024/01/17 19:14:10;;;;;;;17.50;15.60;;;5.10;99.90;;;5.86;100.00;95034.75;10447493;28;20239;-65
2024/01/17 19:19:13;;;;;;;13.70;12.30;;;5.40;99.90;;;6.15;100.00;95027.13;10465771;28;20714;-65
2024/01/17 19:24:17;;;;;;;14.47;13.00;;;5.60;99.90;;;6.25;100.00;95023.19;10445815;28;20302;-64
2024/01/17 19:29:22;;;;;;;19.17;13.90;;;5.80;99.90;;;6.28;100.00;95023.28;10447763;28;20241;-67
2024/01/17 19:34:25;;;;;;;13.77;9.27;;;5.70;99.90;;;6.44;100.00;95019.47;10461167;28;20235;-66
2024/01/17 19:39:29;;;;;;;9.23;7.73;;;5.90;99.90;;;6.60;100.00;95036.81;10426527;28;20232;-65
2024/01/17 19:44:34;;;;;;;20.20;17.80;;;6.00;99.90;;;6.08;100.00;95040.47;10446820;28;20228;-63
2024/01/17 19:49:37;;;;;;;18.20;15.33;;;5.00;99.90;;;5.71;100.00;95044.44;10448450;28;20236;-63
2024/01/17 19:54:43;;;;;;;33.03;28.50;;;4.90;99.90;;;5.54;100.00;95061.66;10462912;28;20345;-64
2024/01/17 19:59:47;;;;;;;29.17;25.83;;;4.60;99.90;;;5.35;100.00;95065.31;10477220;28;20695;-65
2024/01/17 20:04:52;;;;;;;36.70;28.87;;;4.50;99.90;;;5.34;100.00;95078.78;10453944;28;20232;-66
2024/01/17 20:09:56;;;;;;;27.57;23.47;;;4.40;99.90;;;5.17;100.00;95079.91;10468629;28;20721;-66
2024/01/17 20:15:01;;;;;;;17.57;15.77;;;4.30;99.90;;;5.00;100.00;95078.50;10454354;28;20222;-65
2024/01/17 20:20:06;;;;;;;27.33;24.40;;;4.30;99.90;;;5.06;100.00;95076.16;10454497;28;22388;-65
2024/01/17 20:25:13;;;;;;;20.80;18.27;;;4.50;99.90;;;5.21;100.00;95071.63;10448143;28;20596;-65
2024/01/17 20:30:20;;;;;;;31.37;25.03;;;4.60;99.90;;;5.22;100.00;95063.19;10441318;28;20661;-64
2024/01/17 20:35:23;;;;;;;22.50;20.20;;;4.60;99.90;;;5.29;100.00;95075.22;10450854;28;20225;-65
2024/01/17 20:40:28;;;;;;;25.70;21.63;;;4.60;99.90;;;5.14;100.00;95084.88;10435310;28;20220;-64
2024/01/17 20:45:33;;;;;;;23.13;20.80;;;4.40;99.90;;;5.28;100.00;95087.84;10461965;28;20232;-66